createdAt,value
2019-02-11T05:56:01.378Z,0.1
2019-02-11T05:58:06.107Z,0.2
2019-02-11T05:59:02.180Z,0.3
2019-02-11T06:00:01.106Z,0.3
2019-02-11T06:01:01.265Z,0.4
2019-02-11T06:02:01.067Z,0.5
2019-02-11T06:04:06.221Z,0.7
2019-02-11T06:05:01.106Z,0.8
2019-02-11T06:06:01.245Z,0.9
2019-02-11T06:07:01.199Z,1.1
2019-02-11T06:08:01.105Z,1.3
2019-02-11T06:09:06.109Z,1.6
2019-02-11T06:10:01.108Z,1.9
2019-02-11T06:11:01.253Z,2.1
2019-02-11T06:12:01.109Z,2.5
2019-02-11T06:13:01.110Z,2.9
2019-02-11T06:14:01.136Z,3.5
2019-02-11T06:15:04.137Z,4.1
2019-02-11T06:16:01.249Z,4.8
2019-02-11T06:17:01.106Z,5.7
2019-02-11T06:18:01.109Z,6.7
2019-02-11T06:19:01.142Z,7.9
2019-02-11T06:20:01.106Z,9.4
2019-02-11T06:21:01.259Z,11.3
2019-02-11T06:22:01.113Z,13.6
2019-02-11T06:23:01.109Z,16.5
2019-02-11T06:24:01.143Z,19.9
2019-02-11T06:25:01.121Z,24.2
2019-02-11T06:27:01.238Z,30.3
2019-02-11T06:28:01.102Z,37.5
2019-02-11T06:29:01.135Z,45.8
2019-02-11T06:30:01.101Z,55.8
2019-02-11T06:31:01.105Z,67.7
2019-02-11T06:32:01.251Z,82.1
2019-02-11T06:33:01.178Z,99.2
2019-02-11T06:34:01.129Z,118.9
2019-02-11T06:35:01.099Z,141.3
2019-02-11T06:36:01.098Z,167.0
2019-02-11T06:37:01.244Z,196.3
2019-02-11T06:38:01.104Z,229.5
2019-02-11T06:39:06.095Z,267.3
2019-02-11T06:40:01.100Z,310.1
2019-02-11T06:41:01.068Z,358.1
2019-02-11T06:42:01.245Z,411.0
2019-02-11T06:43:01.101Z,470.3
2019-02-11T06:44:01.136Z,536.2
2019-02-11T06:45:02.336Z,608.9
2019-02-11T06:46:01.102Z,689.0
2019-02-11T06:47:01.308Z,776.4
2019-02-11T06:48:01.097Z,871.6
2019-02-11T06:49:01.133Z,975.1
2019-02-11T06:50:01.225Z,1087.5
2019-02-11T06:51:01.100Z,1208.6
2019-02-11T06:52:01.253Z,1338.7
2019-02-11T06:53:01.169Z,1477.9
2019-02-11T06:54:06.113Z,1626.7
2019-02-11T06:55:01.105Z,1785.5
2019-02-11T06:56:01.107Z,1954.8
2019-02-11T06:57:01.248Z,2135.5
2019-02-11T06:58:01.530Z,2328.3
2019-02-11T06:59:06.112Z,2533.5
2019-02-11T07:00:01.105Z,2749.9
2019-02-11T07:01:01.099Z,2979.6
2019-02-11T07:02:02.698Z,3223.2
2019-02-11T07:03:01.102Z,3480.2
2019-02-11T07:04:01.137Z,3748.1
2019-02-11T07:05:01.148Z,4024.7
2019-02-11T07:06:01.108Z,4309.5
2019-02-11T07:07:01.250Z,4600.4
2019-02-11T07:08:01.108Z,4891.1
2019-02-11T07:09:06.110Z,5178.3
2019-02-11T07:10:01.111Z,5464.1
2019-02-11T07:11:01.106Z,5757.2
2019-02-11T07:12:01.253Z,6066.9
2019-02-11T07:13:01.107Z,6400.2
2019-02-11T07:14:01.135Z,6754.4
2019-02-11T07:15:01.109Z,7122.5
2019-02-11T07:16:01.108Z,7497.3
2019-02-11T07:17:01.255Z,7875.9
2019-02-11T07:18:01.109Z,8258.5
2019-02-11T07:19:01.142Z,8650.1
2019-02-11T07:20:01.105Z,9051.3
2019-02-11T07:21:01.110Z,9460.8
2019-02-11T07:22:01.252Z,9877.2
2019-02-11T07:23:01.120Z,10305.7
2019-02-11T07:24:01.137Z,10755.9
2019-02-11T07:25:01.108Z,11224.0
2019-02-11T07:26:01.109Z,11697.3
2019-02-11T07:27:01.318Z,12172.1
2019-02-11T07:28:01.073Z,12647.3
2019-02-11T07:29:01.145Z,13149.1
2019-02-11T07:30:01.107Z,13743.5
2019-02-11T07:31:01.111Z,14413.2
2019-02-11T07:33:01.305Z,15022.5
2019-02-11T07:34:01.090Z,15462.8
2019-02-11T07:35:06.095Z,15762.8
2019-02-11T07:36:01.098Z,15939.8
2019-02-11T07:37:01.092Z,16074.9
2019-02-11T07:38:03.319Z,16138.2
2019-02-11T07:39:01.097Z,16073.7
2019-02-11T07:40:01.096Z,15945.1
2019-02-11T07:41:01.095Z,15735.5
2019-02-11T07:42:01.096Z,15538.9
2019-02-11T07:43:01.246Z,15457.3
2019-02-11T07:44:01.096Z,15264.5
2019-02-11T07:45:01.100Z,15013.7
2019-02-11T07:46:01.101Z,14709.5
2019-02-11T07:47:01.098Z,14462.1
2019-02-11T07:48:01.307Z,14371.7
2019-02-11T07:49:01.097Z,14434.1
2019-02-11T07:50:06.104Z,14663.2
2019-02-11T07:51:01.064Z,15042.3
2019-02-11T07:52:01.098Z,15408.3
2019-02-11T07:53:01.420Z,15927.0
2019-02-11T07:54:01.106Z,16583.7
2019-02-11T07:55:01.138Z,17373.1
2019-02-11T07:56:01.101Z,18321.0
2019-02-11T07:57:01.106Z,19418.1
2019-02-11T07:58:01.251Z,20530.3
2019-02-11T07:59:01.108Z,21658.7
2019-02-11T08:00:06.112Z,22916.6
2019-02-11T08:01:01.109Z,24218.5
2019-02-11T08:02:01.105Z,25161.7
2019-02-11T08:03:01.283Z,26100.1
2019-02-11T08:04:01.109Z,27029.8
2019-02-11T08:05:01.148Z,27715.3
2019-02-11T08:06:01.111Z,28294.5
2019-02-11T08:07:01.110Z,28845.7
2019-02-11T08:08:01.254Z,29238.5
2019-02-11T08:09:01.109Z,29611.7
2019-02-11T08:10:01.148Z,29851.1
2019-02-11T08:12:01.121Z,31217.7
2019-02-11T08:13:03.056Z,32256.1
2019-02-11T08:14:01.120Z,34217.1
2019-02-11T08:15:01.132Z,36582.2
2019-02-11T08:16:01.117Z,38808.1
2019-02-11T08:17:01.098Z,40917.1
2019-02-11T08:18:02.170Z,43223.6
2019-02-11T08:19:01.095Z,44320.9
2019-02-11T08:20:01.131Z,46504.6
2019-02-11T08:21:01.095Z,48875.3
2019-02-11T08:22:01.108Z,51294.9
2019-02-11T08:23:01.253Z,53291.5
2019-02-11T08:24:01.098Z,55817.1
2019-02-11T08:25:01.133Z,57700.9
2019-02-11T08:26:01.113Z,59033.2
2019-02-11T08:27:01.102Z,60338.1
2019-02-11T08:28:01.249Z,61302.5
2019-02-11T08:29:01.070Z,61655.5
2019-02-11T08:30:01.134Z,61404.7
2019-02-11T08:31:01.100Z,60548.0
2019-02-11T08:34:01.331Z,61637.5
2019-02-11T08:35:02.157Z,61544.5
2019-02-11T08:37:01.106Z,60929.8
2019-02-11T08:38:01.106Z,61407.3
2019-02-11T08:40:01.325Z,62032.9
2019-02-11T08:41:01.139Z,63242.3
2019-02-11T08:43:01.154Z,63719.6
2019-02-11T08:45:01.377Z,63970.6
2019-02-11T08:46:06.110Z,64827.3
2019-02-11T08:50:01.256Z,64920.3
2019-02-11T08:52:02.103Z,65535.0
2019-02-11T09:00:01.113Z,65535.0
2019-02-11T09:12:01.259Z,65522.9
2019-02-11T09:13:01.108Z,65135.0
2019-02-11T09:14:01.112Z,64529.3
2019-02-11T09:15:01.111Z,63814.1
2019-02-11T09:16:06.113Z,63036.3
2019-02-11T09:17:09.771Z,62629.2
2019-02-11T09:19:01.107Z,62188.2
2019-02-11T09:21:06.109Z,61407.3
2019-02-11T09:27:01.326Z,61419.4
2019-02-11T09:28:01.115Z,61807.3
2019-02-11T09:29:01.114Z,62413.0
2019-02-11T09:30:01.116Z,63128.2
2019-02-11T09:31:06.158Z,63906.0
2019-02-11T09:33:01.246Z,64313.1
2019-02-11T09:35:01.104Z,64754.1
2019-02-11T09:37:01.107Z,65535.0
2019-02-11T09:45:01.112Z,65535.0
2019-02-11T10:00:03.319Z,65535.0
2019-02-11T10:15:01.274Z,65535.0
2019-02-11T10:30:01.382Z,65535.0
2019-02-11T10:45:01.172Z,65535.0
2019-02-11T11:00:01.320Z,65535.0
2019-02-11T11:15:03.059Z,65535.0
2019-02-11T11:30:01.307Z,65535.0
2019-02-11T11:45:01.171Z,65535.0
2019-02-11T11:53:01.253Z,65232.4
2019-02-11T11:55:01.176Z,65158.1
2019-02-11T11:58:02.136Z,64033.4
2019-02-11T12:00:01.221Z,64033.4
2019-02-11T12:01:01.123Z,62628.4
2019-02-11T12:08:01.392Z,62931.0
2019-02-11T12:11:01.111Z,63005.3
2019-02-11T12:14:01.108Z,64130.0
2019-02-11T12:15:01.295Z,64130.0
2019-02-11T12:17:02.835Z,65535.0
2019-02-11T12:28:01.364Z,65427.1
2019-02-11T12:30:01.118Z,65427.1
2019-02-11T12:32:01.106Z,64640.3
2019-02-11T12:33:01.309Z,64154.9
2019-02-11T12:37:01.161Z,63767.8
2019-02-11T12:43:02.013Z,63875.7
2019-02-11T12:45:01.176Z,63875.7
2019-02-11T12:46:01.105Z,63793.1
2019-02-11T12:47:13.030Z,63930.4
2019-02-11T12:48:01.348Z,63568.7
2019-02-11T12:52:06.113Z,63955.8
2019-02-11T12:54:01.104Z,63423.7
2019-02-11T12:56:02.377Z,62626.6
2019-02-11T12:57:06.112Z,62504.2
2019-02-11T13:00:01.122Z,61914.5
2019-02-11T13:01:01.169Z,61023.1
2019-02-11T13:02:06.098Z,61105.7
2019-02-11T13:03:01.110Z,61755.2
2019-02-11T13:04:01.277Z,62602.3
2019-02-11T13:09:01.257Z,61384.6
2019-02-11T13:10:01.113Z,61916.7
2019-02-11T13:12:01.598Z,62713.8
2019-02-11T13:13:01.175Z,62836.2
2019-02-11T13:15:01.816Z,63425.9
2019-02-11T13:16:02.956Z,64317.3
2019-02-11T13:18:06.244Z,63330.6
2019-02-11T13:24:01.258Z,64548.3
2019-02-11T13:30:01.263Z,64548.3
2019-02-11T13:33:01.118Z,65535.0
2019-02-11T13:45:01.600Z,65535.0
2019-02-11T13:57:01.326Z,65241.8
2019-02-11T14:00:01.109Z,65241.8
2019-02-11T14:03:01.274Z,63928.6
2019-02-11T14:13:01.285Z,64221.8
2019-02-11T14:15:01.193Z,64221.8
2019-02-11T14:18:11.393Z,65535.0
2019-02-11T14:30:01.122Z,65535.0
2019-02-11T14:45:06.110Z,64066.2
2019-02-11T14:46:01.114Z,62225.0
2019-02-11T14:47:01.109Z,60123.7
2019-02-11T14:48:01.115Z,57957.8
2019-02-11T14:49:01.316Z,55760.1
2019-02-11T14:50:01.196Z,53605.0
2019-02-11T14:51:01.121Z,51450.4
2019-02-11T14:52:01.108Z,49174.1
2019-02-11T14:53:01.118Z,46883.2
2019-02-11T14:54:01.254Z,44560.7
2019-02-11T14:55:01.133Z,42240.8
2019-02-11T14:56:01.115Z,39944.0
2019-02-11T14:57:01.107Z,37597.3
2019-02-11T14:58:01.103Z,35220.9
2019-02-11T14:59:01.334Z,32818.1
2019-02-11T15:00:01.118Z,31854.4
2019-02-11T15:01:01.115Z,31222.5
2019-02-11T15:02:01.108Z,30809.2
2019-02-11T15:03:01.116Z,30469.5
2019-02-11T15:05:01.126Z,30145.9
2019-02-11T15:06:01.090Z,29765.2
2019-02-11T15:07:02.348Z,29362.9
2019-02-11T15:08:01.098Z,29065.2
2019-02-11T15:09:01.247Z,28761.2
2019-02-11T15:10:01.127Z,28466.2
2019-02-11T15:11:01.096Z,28146.6
2019-02-11T15:12:01.099Z,27790.0
2019-02-11T15:13:01.093Z,27468.2
2019-02-11T15:14:01.242Z,27158.7
2019-02-11T15:15:01.129Z,26858.5
2019-02-11T15:16:01.093Z,26565.4
2019-02-11T15:17:01.104Z,26290.7
2019-02-11T15:18:01.094Z,26040.2
2019-02-11T15:19:01.235Z,25759.3
2019-02-11T15:20:01.122Z,25468.5
2019-02-11T15:21:01.095Z,25167.0
2019-02-11T15:22:01.093Z,24865.4
2019-02-11T15:23:01.093Z,24554.3
2019-02-11T15:24:01.246Z,24237.5
2019-02-11T15:25:06.096Z,23918.0
2019-02-11T15:26:02.168Z,23597.5
2019-02-11T15:27:01.098Z,23275.5
2019-02-11T15:28:01.098Z,22953.0
2019-02-11T15:29:01.249Z,22626.5
2019-02-11T15:30:01.135Z,22296.7
2019-02-11T15:31:01.109Z,21968.9
2019-02-11T15:32:01.096Z,21642.5
2019-02-11T15:33:01.096Z,21310.3
2019-02-11T15:34:01.250Z,20978.1
2019-02-11T15:35:01.130Z,20650.0
2019-02-11T15:36:01.174Z,20321.7
2019-02-11T15:37:01.105Z,19983.9
2019-02-11T15:38:01.107Z,19656.3
2019-02-11T15:39:01.244Z,19326.4
2019-02-11T15:40:01.139Z,18998.6
2019-02-11T15:41:01.104Z,18666.1
2019-02-11T15:42:01.962Z,18312.8
2019-02-11T15:43:01.110Z,17944.3
2019-02-11T15:44:01.252Z,17566.7
2019-02-11T15:45:01.138Z,17167.3
2019-02-11T15:46:01.109Z,16774.5
2019-02-11T15:47:02.195Z,16397.9
2019-02-11T15:48:01.102Z,16015.1
2019-02-11T15:49:01.248Z,15635.4
2019-02-11T15:50:01.133Z,15240.5
2019-02-11T15:51:01.105Z,14825.2
2019-02-11T15:52:01.098Z,14427.2
2019-02-11T15:53:01.103Z,14022.7
2019-02-11T15:54:01.318Z,13624.7
2019-02-11T15:55:01.136Z,13228.2
2019-02-11T15:56:07.647Z,12838.3
2019-02-11T15:57:01.106Z,12464.8
2019-02-11T15:58:01.108Z,12095.1
2019-02-11T15:59:01.249Z,11731.3
2019-02-11T16:00:01.138Z,11385.9
2019-02-11T16:01:01.113Z,11034.5
2019-02-11T16:02:01.104Z,10665.5
2019-02-11T16:03:01.102Z,10305.0
2019-02-11T16:04:01.283Z,9939.4
2019-02-11T16:05:02.491Z,9588.2
2019-02-11T16:06:10.046Z,9259.2
2019-02-11T16:07:02.308Z,8922.3
2019-02-11T16:08:01.104Z,8585.4
2019-02-11T16:09:04.440Z,8250.5
2019-02-11T16:10:01.128Z,7915.5
2019-02-11T16:11:01.670Z,7581.1
2019-02-11T16:12:01.136Z,7245.3
2019-02-11T16:13:01.103Z,6915.0
2019-02-11T16:14:01.258Z,6590.5
2019-02-11T16:16:01.111Z,6251.5
2019-02-11T16:17:01.093Z,5914.1
2019-02-11T16:18:01.100Z,5581.2
2019-02-11T16:19:01.091Z,5252.8
2019-02-11T16:20:01.237Z,4932.6
2019-02-11T16:21:06.093Z,4620.6
2019-02-11T16:22:01.094Z,4318.8
2019-02-11T16:23:02.096Z,4025.6
2019-02-11T16:24:01.092Z,3743.3
2019-02-11T16:25:01.238Z,3470.1
2019-02-11T16:26:06.095Z,3208.0
2019-02-11T16:27:01.092Z,2956.6
2019-02-11T16:28:01.111Z,2716.9
2019-02-11T16:29:01.093Z,2489.4
2019-02-11T16:30:01.307Z,2271.8
2019-02-11T16:31:06.094Z,2083.7
2019-02-11T16:32:01.188Z,1905.9
2019-02-11T16:33:01.544Z,1739.1
2019-02-11T16:34:01.098Z,1581.8
2019-02-11T16:35:01.309Z,1433.7
2019-02-11T16:36:06.093Z,1294.5
2019-02-11T16:37:01.092Z,1163.9
2019-02-11T16:38:01.097Z,1042.4
2019-02-11T16:39:01.096Z,929.7
2019-02-11T16:40:01.329Z,825.3
2019-02-11T16:41:02.013Z,729.0
2019-02-11T16:42:01.094Z,640.5
2019-02-11T16:43:01.060Z,559.8
2019-02-11T16:44:01.097Z,486.8
2019-02-11T16:45:01.250Z,421.6
2019-02-11T16:46:01.095Z,364.1
2019-02-11T16:47:01.095Z,313.5
2019-02-11T16:48:01.096Z,269.1
2019-02-11T16:49:01.094Z,230.7
2019-02-11T16:50:01.266Z,197.5
2019-02-11T16:51:06.093Z,169.0
2019-02-11T16:52:01.097Z,144.8
2019-02-11T16:53:01.098Z,124.0
2019-02-11T16:54:01.097Z,106.0
2019-02-11T16:55:01.312Z,90.7
2019-02-11T16:56:01.149Z,77.6
2019-02-11T16:57:01.100Z,66.4
2019-02-11T16:58:01.102Z,56.8
2019-02-11T16:59:01.107Z,48.6
2019-02-11T17:00:01.247Z,41.5
2019-02-11T17:01:01.102Z,35.3
2019-02-11T17:02:01.107Z,30.0
2019-02-11T17:03:01.109Z,25.4
2019-02-11T17:04:01.450Z,21.5
2019-02-11T17:05:01.272Z,18.2
2019-02-11T17:06:01.104Z,15.5
2019-02-11T17:07:01.115Z,13.1
2019-02-11T17:08:01.102Z,11.1
2019-02-11T17:09:01.105Z,9.3
2019-02-11T17:10:01.250Z,7.9
2019-02-11T17:11:01.107Z,6.7
2019-02-11T17:12:01.114Z,5.6
2019-02-11T17:13:01.101Z,4.7
2019-02-11T17:14:01.104Z,4.0
2019-02-11T17:15:01.318Z,3.4
2019-02-11T17:16:01.104Z,2.9
2019-02-11T17:17:01.105Z,2.5
2019-02-11T17:18:01.123Z,2.1
2019-02-11T17:19:08.804Z,1.9
2019-02-11T17:20:01.253Z,1.6
2019-02-11T17:21:01.112Z,1.3
2019-02-11T17:22:01.106Z,1.1
2019-02-11T17:23:01.107Z,0.9
2019-02-11T17:24:01.106Z,0.8
2019-02-11T17:25:01.285Z,0.7
2019-02-11T17:26:01.106Z,0.5
2019-02-11T17:29:02.137Z,0.4
2019-02-11T17:30:01.246Z,0.3
2019-02-11T17:32:01.090Z,0.2
2019-02-11T17:33:01.089Z,0.1
